createdAt,value
2018-05-10T00:01:17.581Z,99105
2018-05-10T00:03:43.811Z,99110
2018-05-10T00:06:10.090Z,99112
2018-05-10T00:08:36.371Z,99106
2018-05-10T00:11:02.591Z,99105
2018-05-10T00:13:28.812Z,99105
2018-05-10T00:15:55.029Z,99107
2018-05-10T00:18:21.257Z,99105
2018-05-10T00:20:47.514Z,99111
2018-05-10T00:23:13.689Z,99114
2018-05-10T00:25:40.923Z,99110
2018-05-10T00:28:07.898Z,99108
2018-05-10T00:30:34.273Z,99104
2018-05-10T00:33:00.459Z,99105
2018-05-10T00:35:26.682Z,99105
2018-05-10T00:37:53.471Z,99106
2018-05-10T00:40:19.668Z,99105
2018-05-10T00:42:46.611Z,99104
2018-05-10T00:45:12.873Z,99105
2018-05-10T00:47:39.799Z,99110
2018-05-10T00:50:07.462Z,99114
2018-05-10T00:52:34.394Z,99115
2018-05-10T00:55:00.606Z,99118
2018-05-10T00:57:26.873Z,99115
2018-05-10T00:59:53.078Z,99112
2018-05-10T01:02:19.322Z,99112
2018-05-10T01:04:45.622Z,99110
2018-05-10T01:07:11.766Z,99109
2018-05-10T01:09:44.853Z,99111
2018-05-10T01:12:11.493Z,99107
2018-05-10T01:14:37.684Z,99100
2018-05-10T01:17:03.834Z,99097
2018-05-10T01:19:31.378Z,99097
2018-05-10T01:21:58.390Z,99098
2018-05-10T01:24:24.633Z,99095
2018-05-10T01:26:50.883Z,99106
2018-05-10T01:29:17.053Z,99103
2018-05-10T01:31:44.250Z,99105
2018-05-10T01:34:10.522Z,99105
2018-05-10T01:36:36.682Z,99101
2018-05-10T01:39:03.915Z,99102
2018-05-10T01:41:30.109Z,99101
2018-05-10T01:43:56.411Z,99103
2018-05-10T01:46:23.422Z,99102
2018-05-10T01:48:49.787Z,99102
2018-05-10T01:51:16.012Z,99108
2018-05-10T01:53:42.280Z,99109
2018-05-10T01:56:08.499Z,99113
2018-05-10T01:58:35.448Z,99110
2018-05-10T02:01:02.480Z,99103
2018-05-10T02:03:28.709Z,99103
2018-05-10T02:05:54.937Z,99103
2018-05-10T02:08:21.116Z,99111
2018-05-10T02:10:48.191Z,99113
2018-05-10T02:13:14.442Z,99110
2018-05-10T02:15:40.627Z,99110
2018-05-10T02:18:07.557Z,99114
2018-05-10T02:20:33.763Z,99110
2018-05-10T02:22:59.984Z,99116
2018-05-10T02:25:26.181Z,99110
2018-05-10T02:27:53.107Z,99117
2018-05-10T02:30:19.313Z,99113
2018-05-10T02:32:45.537Z,99114
2018-05-10T02:35:12.030Z,99117
2018-05-10T02:37:38.220Z,99114
2018-05-10T02:40:04.379Z,99115
2018-05-10T02:42:30.636Z,99115
2018-05-10T02:44:57.673Z,99114
2018-05-10T02:47:23.799Z,99116
2018-05-10T02:49:50.056Z,99117
2018-05-10T02:52:17.006Z,99115
2018-05-10T02:54:43.215Z,99112
2018-05-10T02:57:09.461Z,99109
2018-05-10T03:02:08.694Z,99122
2018-05-10T03:04:35.709Z,99122
2018-05-10T03:07:01.878Z,99117
2018-05-10T03:09:28.834Z,99119
2018-05-10T03:11:55.085Z,99115
2018-05-10T03:14:21.281Z,99118
2018-05-10T03:16:48.960Z,99120
2018-05-10T03:19:15.127Z,99119
2018-05-10T03:21:41.327Z,99119
2018-05-10T03:24:07.543Z,99117
2018-05-10T03:26:33.731Z,99118
2018-05-10T03:28:59.962Z,99122
2018-05-10T03:31:28.028Z,99119
2018-05-10T03:33:54.961Z,99121
2018-05-10T03:36:22.623Z,99121
2018-05-10T03:38:48.862Z,99121
2018-05-10T03:41:15.096Z,99126
2018-05-10T03:43:41.324Z,99121
2018-05-10T03:46:07.505Z,99121
2018-05-10T03:48:33.694Z,99123
2018-05-10T03:50:59.901Z,99124
2018-05-10T03:53:26.115Z,99125
2018-05-10T03:55:52.295Z,99119
2018-05-10T03:58:18.506Z,99120
2018-05-10T04:00:44.698Z,99119
2018-05-10T04:06:49.738Z,99119
2018-05-10T04:09:34.643Z,99120
2018-05-10T04:12:00.814Z,99127
2018-05-10T04:14:27.032Z,99128
2018-05-10T04:16:53.962Z,99128
2018-05-10T04:19:21.881Z,99131
2018-05-10T04:21:48.069Z,99130
2018-05-10T04:24:14.248Z,99132
2018-05-10T04:26:40.478Z,99131
2018-05-10T04:29:06.765Z,99131
2018-05-10T04:31:33.589Z,99127
2018-05-10T04:33:59.814Z,99126
2018-05-10T04:36:26.041Z,99132
2018-05-10T04:38:52.192Z,99131
2018-05-10T04:41:18.388Z,99133
2018-05-10T04:43:45.308Z,99137
2018-05-10T04:46:11.501Z,99137
2018-05-10T04:48:37.809Z,99132
2018-05-10T04:51:04.023Z,99131
2018-05-10T04:53:31.634Z,99131
2018-05-10T04:55:57.828Z,99130
2018-05-10T04:58:24.012Z,99130
2018-05-10T05:00:50.174Z,99127
2018-05-10T05:03:16.504Z,99132
2018-05-10T05:05:42.621Z,99131
2018-05-10T05:08:08.819Z,99128
2018-05-10T05:10:35.775Z,99129
2018-05-10T05:13:01.973Z,99133
2018-05-10T05:15:28.132Z,99136
2018-05-10T05:17:54.308Z,99134
2018-05-10T05:20:20.584Z,99135
2018-05-10T05:22:46.893Z,99130
2018-05-10T05:25:13.877Z,99130
2018-05-10T05:27:40.862Z,99131
2018-05-10T05:30:07.057Z,99131
2018-05-10T05:32:34.033Z,99131
2018-05-10T05:35:00.948Z,99137
2018-05-10T05:37:27.204Z,99134
2018-05-10T05:39:53.559Z,99134
2018-05-10T05:42:19.776Z,99132
2018-05-10T05:44:46.013Z,99132
2018-05-10T05:47:12.952Z,99127
2018-05-10T05:49:39.838Z,99138
2018-05-10T05:52:06.112Z,99139
2018-05-10T05:54:32.329Z,99137
2018-05-10T05:56:58.571Z,99141
2018-05-10T05:59:24.744Z,99130
2018-05-10T06:01:50.942Z,99131
2018-05-10T06:04:17.160Z,99141
2018-05-10T06:06:43.396Z,99143
2018-05-10T06:09:09.568Z,99139
2018-05-10T06:11:35.797Z,99136
2018-05-10T06:14:01.988Z,99143
2018-05-10T06:16:28.242Z,99148
2018-05-10T06:18:54.485Z,99145
2018-05-10T06:21:20.696Z,99150
2018-05-10T06:23:46.889Z,99150
2018-05-10T06:26:13.798Z,99148
2018-05-10T06:28:39.976Z,99150
2018-05-10T06:31:06.889Z,99151
2018-05-10T06:33:33.349Z,99153
2018-05-10T06:35:59.794Z,99149
2018-05-10T06:38:26.213Z,99153
2018-05-10T06:40:53.440Z,99154
2018-05-10T06:43:20.005Z,99156
2018-05-10T06:45:47.018Z,99153
2018-05-10T06:48:13.228Z,99157
2018-05-10T06:50:39.437Z,99153
2018-05-10T06:53:05.859Z,99147
2018-05-10T06:55:32.150Z,99147
2018-05-10T06:57:58.387Z,99154
2018-05-10T07:00:24.661Z,99153
2018-05-10T07:02:51.653Z,99154
2018-05-10T07:05:17.876Z,99156
2018-05-10T07:07:44.830Z,99158
2018-05-10T07:10:11.059Z,99159
2018-05-10T07:12:37.423Z,99158
2018-05-10T07:15:03.644Z,99155
2018-05-10T07:17:30.614Z,99153
2018-05-10T07:19:56.832Z,99149
2018-05-10T07:22:23.761Z,99147
2018-05-10T07:24:51.417Z,99153
2018-05-10T07:27:17.621Z,99151
2018-05-10T07:29:43.838Z,99152
2018-05-10T07:32:10.090Z,99155
2018-05-10T07:34:36.331Z,99152
2018-05-10T07:37:02.579Z,99148
2018-05-10T07:39:28.826Z,99155
2018-05-10T07:41:55.344Z,99149
2018-05-10T07:44:21.809Z,99153
2018-05-10T07:46:48.500Z,99148
2018-05-10T07:49:15.245Z,99146
2018-05-10T07:51:41.831Z,99154
2018-05-10T07:54:08.041Z,99158
2018-05-10T07:56:34.213Z,99161
2018-05-10T07:59:00.726Z,99152
2018-05-10T08:01:27.094Z,99159
2018-05-10T08:03:53.392Z,99158
2018-05-10T08:06:20.472Z,99157
2018-05-10T08:08:46.966Z,99160
2018-05-10T08:11:13.505Z,99160
2018-05-10T08:13:40.004Z,99157
2018-05-10T08:16:06.962Z,99155
2018-05-10T08:18:34.786Z,99159
2018-05-10T08:21:01.222Z,99162
2018-05-10T08:23:45.904Z,99161
2018-05-10T08:26:12.157Z,99159
2018-05-10T08:28:38.351Z,99165
2018-05-10T08:31:04.601Z,99163
2018-05-10T08:33:30.996Z,99166
2018-05-10T08:35:57.155Z,99163
2018-05-10T08:38:23.346Z,99168
2018-05-10T08:40:50.349Z,99167
2018-05-10T08:43:16.571Z,99171
2018-05-10T08:45:42.768Z,99166
2018-05-10T08:48:09.862Z,99164
2018-05-10T08:50:36.849Z,99161
2018-05-10T08:53:03.110Z,99166
2018-05-10T08:55:29.310Z,99156
2018-05-10T08:57:55.500Z,99160
2018-05-10T09:00:21.693Z,99164
2018-05-10T09:02:48.708Z,99166
2018-05-10T09:05:14.973Z,99166
2018-05-10T09:07:41.198Z,99166
2018-05-10T09:10:07.442Z,99172
2018-05-10T09:12:34.161Z,99171
2018-05-10T09:15:01.161Z,99171
2018-05-10T09:17:27.999Z,99171
2018-05-10T09:19:54.978Z,99169
2018-05-10T09:22:21.745Z,99172
2018-05-10T09:24:47.980Z,99177
2018-05-10T09:27:14.191Z,99177
2018-05-10T09:29:40.352Z,99181
2018-05-10T09:32:06.570Z,99186
2018-05-10T09:34:32.751Z,99186
2018-05-10T09:36:58.925Z,99187
2018-05-10T09:39:25.178Z,99185
2018-05-10T09:41:51.343Z,99178
2018-05-10T09:44:17.523Z,99198
2018-05-10T09:46:43.690Z,99184
2018-05-10T09:49:10.629Z,99188
2018-05-10T09:51:36.791Z,99192
2018-05-10T09:54:02.961Z,99195
2018-05-10T09:56:29.905Z,99205
2018-05-10T09:58:56.089Z,99196
2018-05-10T10:01:22.300Z,99199
2018-05-10T10:03:48.455Z,99202
2018-05-10T10:06:14.711Z,99207
2018-05-10T10:08:40.909Z,99204
2018-05-10T10:11:07.092Z,99210
2018-05-10T10:13:33.469Z,99214
2018-05-10T10:15:59.686Z,99217
2018-05-10T10:18:26.571Z,99216
2018-05-10T10:20:52.757Z,99225
2018-05-10T10:23:18.977Z,99215
2018-05-10T10:25:45.137Z,99220
2018-05-10T10:28:12.126Z,99219
2018-05-10T10:30:38.345Z,99216
2018-05-10T10:33:04.518Z,99223
2018-05-10T10:35:30.712Z,99218
2018-05-10T10:37:56.892Z,99219
2018-05-10T10:40:23.062Z,99217
2018-05-10T10:42:49.976Z,99215
2018-05-10T10:45:16.190Z,99216
2018-05-10T10:47:42.446Z,99223
2018-05-10T10:50:08.633Z,99219
2018-05-10T10:52:34.809Z,99217
2018-05-10T10:55:00.975Z,99220
2018-05-10T10:57:27.145Z,99216
2018-05-10T10:59:53.419Z,99217
2018-05-10T11:02:19.533Z,99229
2018-05-10T11:04:45.797Z,99217
2018-05-10T11:07:12.838Z,99216
2018-05-10T11:09:38.966Z,99225
2018-05-10T11:12:05.125Z,99227
2018-05-10T11:14:32.058Z,99227
2018-05-10T11:16:58.285Z,99223
2018-05-10T11:19:24.540Z,99220
2018-05-10T11:21:51.512Z,99223
2018-05-10T11:24:18.420Z,99227
2018-05-10T11:26:44.629Z,99238
2018-05-10T11:29:10.805Z,99247
2018-05-10T11:31:37.003Z,99230
2018-05-10T11:34:03.212Z,99218
2018-05-10T11:36:29.389Z,99226
2018-05-10T11:38:56.238Z,99223
2018-05-10T11:41:22.428Z,99230
2018-05-10T11:43:48.624Z,99217
2018-05-10T11:46:14.786Z,99220
2018-05-10T11:48:41.039Z,99218
2018-05-10T11:51:07.168Z,99205
2018-05-10T11:53:33.393Z,99213
2018-05-10T11:55:59.582Z,99186
2018-05-10T11:58:25.781Z,99206
2018-05-10T12:00:52.019Z,99205
2018-05-10T12:03:18.207Z,99206
2018-05-10T12:05:44.358Z,99203
2018-05-10T12:08:10.639Z,99210
2018-05-10T12:10:36.864Z,99200
2018-05-10T12:13:03.081Z,99204
2018-05-10T12:15:29.324Z,99197
2018-05-10T12:17:55.519Z,99199
2018-05-10T12:20:22.503Z,99194
2018-05-10T12:22:48.596Z,99188
2018-05-10T12:25:15.544Z,99196
2018-05-10T12:27:41.741Z,99184
2018-05-10T12:30:07.953Z,99176
2018-05-10T12:32:34.255Z,99180
2018-05-10T12:35:01.539Z,99176
2018-05-10T12:37:27.712Z,99179
2018-05-10T12:39:53.884Z,99192
2018-05-10T12:42:20.794Z,99186
2018-05-10T12:44:46.949Z,99188
2018-05-10T12:47:13.105Z,99193
2018-05-10T12:49:40.007Z,99194
2018-05-10T12:52:06.925Z,99198
2018-05-10T12:54:33.082Z,99200
2018-05-10T12:56:59.257Z,99196
2018-05-10T12:59:26.143Z,99212
2018-05-10T13:01:52.296Z,99200
2018-05-10T13:04:18.499Z,99194
2018-05-10T13:06:44.763Z,99206
2018-05-10T13:09:10.878Z,99202
2018-05-10T13:11:37.139Z,99202
2018-05-10T13:14:03.357Z,99202
2018-05-10T13:16:29.552Z,99201
2018-05-10T13:18:55.766Z,99204
2018-05-10T13:21:21.988Z,99200
2018-05-10T13:23:48.230Z,99194
2018-05-10T13:26:14.458Z,99208
2018-05-10T13:28:41.408Z,99202
2018-05-10T13:31:07.596Z,99192
2018-05-10T13:33:33.808Z,99197
2018-05-10T13:36:00.293Z,99193
2018-05-10T13:38:27.430Z,99188
2018-05-10T13:40:53.664Z,99191
2018-05-10T13:43:19.988Z,99193
2018-05-10T13:45:46.183Z,99191
2018-05-10T13:48:13.096Z,99195
2018-05-10T13:50:39.281Z,99196
2018-05-10T13:53:06.295Z,99203
2018-05-10T13:55:33.146Z,99197
2018-05-10T13:57:59.324Z,99205
2018-05-10T14:00:26.255Z,99203
2018-05-10T14:02:52.456Z,99205
2018-05-10T14:05:18.957Z,99200
2018-05-10T14:07:45.172Z,99204
2018-05-10T14:10:11.504Z,99203
2018-05-10T14:12:37.673Z,99198
2018-05-10T14:15:03.877Z,99200
2018-05-10T14:17:30.804Z,99199
2018-05-10T14:19:56.976Z,99212
2018-05-10T14:22:23.885Z,99211
2018-05-10T14:24:50.849Z,99216
2018-05-10T14:27:17.036Z,99220
2018-05-10T14:29:43.257Z,99225
2018-05-10T14:32:09.550Z,99227
2018-05-10T14:34:36.507Z,99231
2018-05-10T14:37:03.521Z,99227
2018-05-10T14:39:29.847Z,99227
2018-05-10T14:41:56.731Z,99225
2018-05-10T14:44:22.906Z,99214
2018-05-10T14:46:49.083Z,99210
2018-05-10T14:49:15.294Z,99208
2018-05-10T14:51:41.508Z,99220
2018-05-10T14:54:07.715Z,99225
2018-05-10T14:56:34.642Z,99235
2018-05-10T14:59:00.810Z,99240
2018-05-10T15:01:27.733Z,99250
2018-05-10T15:03:53.904Z,99255
2018-05-10T15:06:20.139Z,99259
2018-05-10T15:08:47.318Z,99259
2018-05-10T15:11:13.533Z,99258
2018-05-10T15:13:40.482Z,99261
2018-05-10T15:16:06.689Z,99259
2018-05-10T15:18:32.856Z,99264
2018-05-10T15:20:59.055Z,99271
2018-05-10T15:23:25.253Z,99283
2018-05-10T15:25:51.402Z,99276
2018-05-10T15:28:17.612Z,99283
2018-05-10T15:30:43.837Z,99273
2018-05-10T15:33:10.042Z,99267
2018-05-10T15:35:36.228Z,99270
2018-05-10T15:38:02.387Z,99269
2018-05-10T15:40:28.523Z,99278
2018-05-10T15:42:54.712Z,99276
2018-05-10T15:45:20.960Z,99280
2018-05-10T15:47:47.150Z,99264
2018-05-10T15:50:13.481Z,99288
2018-05-10T15:52:39.691Z,99292
2018-05-10T15:55:05.859Z,99290
2018-05-10T15:57:32.793Z,99295
2018-05-10T15:59:59.714Z,99296
2018-05-10T16:02:26.251Z,99290
2018-05-10T16:04:52.433Z,99293
2018-05-10T16:07:19.351Z,99312
2018-05-10T16:09:45.552Z,99315
2018-05-10T16:12:11.738Z,99331
2018-05-10T16:14:37.924Z,99341
2018-05-10T16:17:04.096Z,99347
2018-05-10T16:19:30.330Z,99363
2018-05-10T16:21:56.468Z,99376
2018-05-10T16:24:23.392Z,99388
2018-05-10T16:26:49.560Z,99397
2018-05-10T16:29:16.448Z,99400
2018-05-10T16:31:42.650Z,99405
2018-05-10T16:34:08.815Z,99410
2018-05-10T16:36:34.969Z,99414
2018-05-10T16:39:01.103Z,99414
2018-05-10T16:41:27.715Z,99407
2018-05-10T16:43:53.892Z,99411
2018-05-10T16:46:20.229Z,99414
2018-05-10T16:48:47.153Z,99420
2018-05-10T16:51:13.419Z,99428
2018-05-10T16:53:40.324Z,99442
2018-05-10T16:56:06.482Z,99441
2018-05-10T16:58:32.686Z,99444
2018-05-10T17:00:58.870Z,99446
2018-05-10T17:03:25.039Z,99442
2018-05-10T17:05:51.965Z,99439
2018-05-10T17:08:18.925Z,99434
2018-05-10T17:10:45.868Z,99430
2018-05-10T17:13:12.781Z,99423
2018-05-10T17:15:38.974Z,99428
2018-05-10T17:18:05.137Z,99437
2018-05-10T17:20:31.295Z,99440
2018-05-10T17:22:57.457Z,99449
2018-05-10T17:25:24.369Z,99455
2018-05-10T17:27:50.577Z,99460
2018-05-10T17:30:16.722Z,99465
2018-05-10T17:32:42.889Z,99469
2018-05-10T17:35:09.164Z,99473
2018-05-10T17:37:35.321Z,99466
2018-05-10T17:40:01.534Z,99466
2018-05-10T17:42:27.733Z,99472
2018-05-10T17:44:54.003Z,99474
2018-05-10T17:47:20.228Z,99479
2018-05-10T17:49:46.417Z,99487
2018-05-10T17:52:12.561Z,99489
2018-05-10T17:54:38.761Z,99497
2018-05-10T17:57:05.076Z,99505
2018-05-10T17:59:31.221Z,99514
2018-05-10T18:01:57.458Z,99520
2018-05-10T18:04:23.616Z,99532
2018-05-10T18:06:49.790Z,99541
2018-05-10T18:09:16.004Z,99544
2018-05-10T18:11:42.239Z,99550
2018-05-10T18:14:08.386Z,99556
2018-05-10T18:16:35.321Z,99559
2018-05-10T18:19:01.513Z,99560
2018-05-10T18:21:27.767Z,99561
2018-05-10T18:23:53.935Z,99568
2018-05-10T18:26:20.875Z,99577
2018-05-10T18:28:47.769Z,99581
2018-05-10T18:31:14.019Z,99582
2018-05-10T18:33:40.233Z,99586
2018-05-10T18:36:06.652Z,99595
2018-05-10T18:38:32.973Z,99593
2018-05-10T18:40:59.928Z,99603
2018-05-10T18:43:26.133Z,99606
2018-05-10T18:45:53.097Z,99620
2018-05-10T18:48:19.256Z,99641
2018-05-10T18:50:45.386Z,99651
2018-05-10T18:53:11.547Z,99667
2018-05-10T18:55:38.021Z,99686
2018-05-10T18:58:04.153Z,99685
2018-05-10T19:00:31.095Z,99690
2018-05-10T19:02:57.245Z,99694
2018-05-10T19:05:23.400Z,99698
2018-05-10T19:07:50.190Z,99703
2018-05-10T19:10:16.356Z,99718
2018-05-10T19:12:42.525Z,99723
2018-05-10T19:15:08.672Z,99727
2018-05-10T19:17:34.800Z,99724
2018-05-10T19:20:00.972Z,99730
2018-05-10T19:22:27.139Z,99729
2018-05-10T19:24:53.348Z,99731
2018-05-10T19:27:19.489Z,99739
2018-05-10T19:29:45.637Z,99735
2018-05-10T19:32:11.851Z,99735
2018-05-10T19:34:38.100Z,99739
2018-05-10T19:37:04.237Z,99742
2018-05-10T19:39:30.786Z,99741
2018-05-10T19:41:56.969Z,99746
2018-05-10T19:44:23.864Z,99742
2018-05-10T19:46:49.999Z,99755
2018-05-10T19:49:16.229Z,99763
2018-05-10T19:51:42.462Z,99768
2018-05-10T19:54:08.633Z,99770
2018-05-10T19:56:35.600Z,99778
2018-05-10T19:59:01.758Z,99778
2018-05-10T20:01:27.904Z,99785
2018-05-10T20:03:54.065Z,99794
2018-05-10T20:06:20.188Z,99791
2018-05-10T20:08:47.118Z,99792
2018-05-10T20:11:13.368Z,99799
2018-05-10T20:13:40.409Z,99813
2018-05-10T20:16:06.510Z,99813
2018-05-10T20:18:32.692Z,99825
2018-05-10T20:20:59.613Z,99817
2018-05-10T20:23:25.739Z,99823
2018-05-10T20:25:51.879Z,99831
2018-05-10T20:28:18.266Z,99835
2018-05-10T20:30:44.595Z,99846
2018-05-10T20:33:11.474Z,99854
2018-05-10T20:35:37.649Z,99859
2018-05-10T20:38:03.836Z,99863
2018-05-10T20:40:30.057Z,99865
2018-05-10T20:42:56.972Z,99860
2018-05-10T20:45:23.168Z,99865
2018-05-10T20:47:49.390Z,99859
2018-05-10T20:50:15.583Z,99861
2018-05-10T20:52:41.742Z,99855
2018-05-10T20:55:07.999Z,99860
2018-05-10T20:57:34.199Z,99868
2018-05-10T21:00:00.392Z,99874
2018-05-10T21:02:26.603Z,99879
2018-05-10T21:04:52.735Z,99882
2018-05-10T21:07:19.470Z,99885
2018-05-10T21:09:45.729Z,99897
2018-05-10T21:15:21.815Z,99899
2018-05-10T21:17:48.022Z,99904
2018-05-10T21:20:14.277Z,99904
2018-05-10T21:22:40.484Z,99915
2018-05-10T21:25:06.620Z,99914
2018-05-10T21:27:32.781Z,99925
2018-05-10T21:29:58.912Z,99922
2018-05-10T21:32:26.098Z,99912
2018-05-10T21:34:52.325Z,99909
2018-05-10T21:37:18.559Z,99910
2018-05-10T21:39:45.486Z,99911
2018-05-10T21:42:11.628Z,99911
2018-05-10T21:44:37.859Z,99912
2018-05-10T21:47:04.047Z,99908
2018-05-10T21:49:48.777Z,99916
2018-05-10T21:52:14.936Z,99911
2018-05-10T21:54:41.198Z,99916
2018-05-10T21:57:07.356Z,99917
2018-05-10T21:59:33.497Z,99920
2018-05-10T22:01:59.669Z,99922
2018-05-10T22:04:25.838Z,99924
2018-05-10T22:06:51.981Z,99924
2018-05-10T22:09:18.193Z,99922
2018-05-10T22:11:44.364Z,99915
2018-05-10T22:14:11.285Z,99914
2018-05-10T22:16:37.503Z,99919
2018-05-10T22:19:03.729Z,99919
2018-05-10T22:21:29.934Z,99920
2018-05-10T22:23:56.141Z,99933
2018-05-10T22:26:23.135Z,99939
2018-05-10T22:28:49.552Z,99939
2018-05-10T22:31:16.589Z,99939
2018-05-10T22:33:42.750Z,99948
2018-05-10T22:36:09.690Z,99950
2018-05-10T22:38:35.908Z,99954
2018-05-10T22:41:02.067Z,99947
2018-05-10T22:43:28.526Z,99948
2018-05-10T22:45:54.688Z,99951
2018-05-10T22:48:20.884Z,99957
2018-05-10T22:50:47.093Z,99960
2018-05-10T22:53:13.264Z,99963
2018-05-10T22:55:39.445Z,99957
2018-05-10T22:58:05.622Z,99960
2018-05-10T23:00:31.780Z,99964
2018-05-10T23:02:57.984Z,99965
2018-05-10T23:05:30.220Z,99973
2018-05-10T23:07:56.447Z,99974
2018-05-10T23:10:22.609Z,99984
2018-05-10T23:12:48.819Z,99986
2018-05-10T23:15:15.729Z,99993
2018-05-10T23:17:42.720Z,99997
2018-05-10T23:20:08.903Z,100008
2018-05-10T23:22:35.090Z,100010
2018-05-10T23:25:02.024Z,100011
2018-05-10T23:27:35.119Z,100012
2018-05-10T23:30:01.289Z,100017
2018-05-10T23:32:27.525Z,100024
2018-05-10T23:34:53.701Z,100027
2018-05-10T23:37:20.693Z,100033
2018-05-10T23:39:46.877Z,100039
2018-05-10T23:42:13.073Z,100042
2018-05-10T23:44:39.267Z,100046
2018-05-10T23:47:05.448Z,100045
2018-05-10T23:49:31.657Z,100048
2018-05-10T23:51:58.612Z,100051
2018-05-10T23:54:25.569Z,100052
2018-05-10T23:56:51.754Z,100056
2018-05-10T23:59:17.935Z,100057
